M/V Le Conte — WZE4270 — position and weather

sailwx.info

Track history (hours):
 
Tides and Currents Weather Stations Pressure Air Temp Water Temp Dewpoint Dewpoint Depression Visibility Wind Speed Wind Dir Waves Ship Positions

M/V Le Conte

Owner: ALASKA MARINE HIGHWAY SYSTEM, JUNEAU, AK. More information available from US FCC via Universal Licensing System and Coast Guard Vessel Documentation Center.

Last reported at 2017-Aug-21 21:25 UTC. Time now 2017-Aug-23 08:05 UTC.
Position N 58°19' W 135°26'.

Type: Ship. MMSI: 338761000.

Date/timePositionNaut miles runAvg speedWind from/ knotsBaromVisibWave heightAir tempDewpointWater temp
2017-Aug-21 21:25N 58°19' W 135°26'615.0
2017-Aug-21 21:00N 58°23' W 135°35'5 8.2
2017-Aug-21 20:26N 58°23' W 135°44'0 0.0
2017-Aug-21 19:56N 58°23' W 135°44'0 0.0
2017-Aug-21 19:12N 58°23' W 135°44'1 6.3
2017-Aug-21 19:00N 58°22' W 135°45'17 1.4
2017-Aug-21 06:30N 58°10' W 135°23'4 2.8
2017-Aug-21 05:16N 58°08' W 135°29'413.9
2017-Aug-21 04:59N 58°11' W 135°28'715.4
2017-Aug-21 04:30N 58°16' W 135°39'815.0
2017-Aug-21 04:00N 58°17' W 135°53'816.0
2017-Aug-21 03:30N 58°15' W 136°08'917.8
2017-Aug-21 03:00N 58°12' W 136°24'3 0.5 070 / 181005.7 2.2 13.0
2017-Aug-20 21:28N 58°14' W 136°19'816.6
2017-Aug-20 20:59N 58°15' W 136°04'815.7
2017-Aug-20 20:31N 58°18' W 135°51'815.2
2017-Aug-20 20:00N 58°15' W 135°37'  
2017-Aug-16 21:22N 58°14' W 135°32'615.3
2017-Aug-16 20:59N 58°18' W 135°41'611.8
2017-Aug-16 20:30N 58°23' W 135°44'0 0.0
2017-Aug-16 20:00N 58°23' W 135°44'0 0.0
2017-Aug-16 19:30N 58°23' W 135°44'0 0.1
2017-Aug-16 19:00N 58°23' W 135°44'9 0.2
2017-Aug-14 21:15N 58°16' W 135°34'415.3
2017-Aug-14 21:00N 58°18' W 135°41'610.1
2017-Aug-14 20:25N 58°23' W 135°44'0 0.0
2017-Aug-14 19:55N 58°23' W 135°44'0 0.0
2017-Aug-14 19:25N 58°23' W 135°44'0 0.1
2017-Aug-14 19:00N 58°23' W 135°44'  
Track history (hours):
 
Tides and Currents Weather Stations Pressure Air Temp Water Temp Dewpoint Dewpoint Depression Visibility Wind Speed Wind Dir Waves Ship Positions

M/V Le Conte

Owner: ALASKA MARINE HIGHWAY SYSTEM, JUNEAU, AK. More information available from US FCC via Universal Licensing System and Coast Guard Vessel Documentation Center.

Last reported at 2017-Aug-21 21:25 UTC. Time now 2017-Aug-23 08:05 UTC.
Position N 58°19' W 135°26'.

Type: Ship. MMSI: 338761000.

Date/timePositionNaut miles runAvg speedWind from/ knotsBaromVisibWave heightAir tempDewpointWater temp
2017-Aug-21 21:25N 58°19' W 135°26'615.0
2017-Aug-21 21:00N 58°23' W 135°35'5 8.2
2017-Aug-21 20:26N 58°23' W 135°44'0 0.0
2017-Aug-21 19:56N 58°23' W 135°44'0 0.0
2017-Aug-21 19:12N 58°23' W 135°44'1 6.3
2017-Aug-21 19:00N 58°22' W 135°45'17 1.4
2017-Aug-21 06:30N 58°10' W 135°23'4 2.8
2017-Aug-21 05:16N 58°08' W 135°29'413.9
2017-Aug-21 04:59N 58°11' W 135°28'715.4
2017-Aug-21 04:30N 58°16' W 135°39'815.0
2017-Aug-21 04:00N 58°17' W 135°53'816.0
2017-Aug-21 03:30N 58°15' W 136°08'917.8
2017-Aug-21 03:00N 58°12' W 136°24'3 0.5 070 / 181005.7 2.2 13.0
2017-Aug-20 21:28N 58°14' W 136°19'816.6
2017-Aug-20 20:59N 58°15' W 136°04'815.7
2017-Aug-20 20:31N 58°18' W 135°51'815.2
2017-Aug-20 20:00N 58°15' W 135°37'  
2017-Aug-16 21:22N 58°14' W 135°32'615.3
2017-Aug-16 20:59N 58°18' W 135°41'611.8
2017-Aug-16 20:30N 58°23' W 135°44'0 0.0
2017-Aug-16 20:00N 58°23' W 135°44'0 0.0
2017-Aug-16 19:30N 58°23' W 135°44'0 0.1
2017-Aug-16 19:00N 58°23' W 135°44'9 0.2
2017-Aug-14 21:15N 58°16' W 135°34'415.3
2017-Aug-14 21:00N 58°18' W 135°41'610.1
2017-Aug-14 20:25N 58°23' W 135°44'0 0.0
2017-Aug-14 19:55N 58°23' W 135°44'0 0.0
2017-Aug-14 19:25N 58°23' W 135°44'0 0.1
2017-Aug-14 19:00N 58°23' W 135°44'  

Dump ship's entire track history